Santa Marta de Tormes, Spain
Current Conditions -  °F | °C
As of 8:00 AM on Saturday 29 Nov 2014 (Local Time) from LESA Reporting Station
Light Fog Light Fog  
Wind Chill: 34°   Ceiling: Unl
Heat Index: 34°   Visibility: 0.12mi
Dew Point: 34°   Wind: 2mph
Humidity: 100%   Direction: NA
Pressure: 29.38"   Gusts: NA
Location:  40.95°N, 5.63°W
Report Text: LESA 290700Z VRB02KT 0200 R21/1100D BCFG SCT001 01/01 Q0995
Loading
Personal Weather Stations






























Interactive Weather Map New forecast layout! Learn more

10-Day Weather Forecast

Advertisements
Track Severe Weather on mobile